Time;durP1;ratioP1;P1;durP2;ratioP2;P2;SDS_P1;SDS_P2;PMS_P1;PMS_P2;Temp;Humidity;BMP_temperature;BMP_pressure;BME280_temperature;BME280_humidity;BME280_pressure;Samples;Min_cycle;Max_cycle;Signal;HPM_P1;HPM_P2
2022/04/01 00:01:56;;;;;;;;;;;;;;;;;;;;;
2022/04/01 00:04:36;;;;;;;0.60;0.60;;;1.60;99.90;;;;;;6193429;23;20067;-92
2022/04/01 00:07:30;;;;;;;;;;;;;;;;;;;;;
2022/04/01 00:10:04;;;;;;;0.57;0.50;;;-0.20;99.90;;;;;;6194833;23;20024;-92
2022/04/01 00:12:34;;;;;;;0.30;0.30;;;0.20;99.90;;;;;;6189416;23;20464;-91
2022/04/01 00:15:26;;;;;;;4.90;1.38;;;1.20;99.90;;;;;;6190578;23;20071;-91
2022/04/01 00:18:19;;;;;;;0.88;0.75;;;-0.70;99.90;;;;;;6165855;23;20017;-91
2022/04/01 00:21:02;;;;;;;0.38;0.38;;;1.30;99.90;;;;;;6188899;23;20023;-91
2022/04/01 00:23:41;;;;;;;;;;;;;;;;;;;;;
2022/04/01 00:26:15;;;;;;;2.45;1.08;;;0.30;99.90;;;;;;6214507;23;20019;-92
2022/04/01 00:32:01;;;;;;;0.80;0.60;;;1.70;99.90;;;;;;6185726;23;20061;-91
2022/04/01 00:34:36;;;;;;;1.25;0.73;;;1.10;99.90;;;;;;6163262;23;20429;-92
2022/04/01 00:37:15;;;;;;;0.35;0.35;;;-0.50;99.90;;;;;;6188603;23;20071;-91
2022/04/01 00:39:52;;;;;;;1.58;1.17;;;0.40;99.90;;;;;;6189735;23;20016;-91
2022/04/01 00:42:48;;;;;;;0.55;0.55;;;0.50;99.90;;;;;;6166505;23;20520;-91
2022/04/01 00:45:19;;;;;;;0.43;0.43;;;0.50;99.90;;;;;;6189433;23;20017;-91
2022/04/01 00:48:24;;;;;;;0.40;0.40;;;1.70;99.90;;;;;;6191442;23;20096;-91
2022/04/01 00:51:21;;;;;;;0.30;0.30;;;0.50;99.90;;;;;;6190676;23;20017;-91
2022/04/01 00:53:50;;;;;;;0.38;0.38;;;1.90;99.90;;;;;;6190089;23;20029;-91
2022/04/01 00:56:44;;;;;;;0.40;0.40;;;1.60;99.90;;;;;;6189717;23;20019;-91
2022/04/01 00:59:18;;;;;;;1.05;0.90;;;0.00;99.90;;;;;;6189968;23;20087;-91
2022/04/01 01:01:49;;;;;;;1.45;0.50;;;0.60;99.90;;;;;;6191465;23;20088;-91
2022/04/01 01:04:23;;;;;;;0.50;0.50;;;1.50;99.90;;;;;;6214963;23;20017;-91
2022/04/01 01:07:06;;;;;;;;;;;;;;;;;;;;;
2022/04/01 01:09:47;;;;;;;;;;;;;;;;;;;;;
2022/04/01 01:12:49;;;;;;;0.45;0.45;;;1.60;99.90;;;;;;6192691;23;20017;-90
2022/04/01 01:15:45;;;;;;;0.50;0.50;;;0.60;99.90;;;;;;6190455;23;20059;-91
2022/04/01 01:18:21;;;;;;;0.43;0.43;;;0.60;99.90;;;;;;6190424;23;20016;-91
2022/04/01 01:21:09;;;;;;;0.28;0.28;;;-0.10;99.90;;;;;;6142951;23;20023;-91
2022/04/01 01:23:47;;;;;;;;;;;;;;;;;;;;;
2022/04/01 01:26:43;;;;;;;0.57;0.57;;;0.50;99.90;;;;;;6214242;23;20020;-94
2022/04/01 01:29:22;;;;;;;;;;;;;;;;;;;;;
2022/04/01 01:32:09;;;;;;;;;;;;;;;;;;;;;
2022/04/01 01:34:43;;;;;;;2.05;0.70;;;0.60;99.90;;;;;;6192666;23;20044;-91
2022/04/01 01:37:10;;;;;;;0.63;0.63;;;1.50;99.90;;;;;;6166926;23;20398;-91
2022/04/01 01:39:51;;;;;;;0.67;0.47;;;1.80;99.90;;;;;;6164566;23;20012;-91
2022/04/01 01:42:38;;;;;;;;;;;;;;;;;;;;;
2022/04/01 01:45:44;;;;;;;3.28;0.65;;;0.60;99.90;;;;;;6194979;23;20072;-92
2022/04/01 01:48:22;;;;;;;;;;;;;;;;;;;;;
2022/04/01 01:56:40;;;;;;;;;;;;;;;;;;;;;
2022/04/01 01:59:11;;;;;;;1.67;0.47;;;-0.30;99.90;;;;;;6216811;23;20072;-91
2022/04/01 02:01:43;;;;;;;2.92;0.85;;;0.30;99.90;;;;;;6166189;23;20083;-91
2022/04/01 02:04:17;;;;;;;0.52;0.52;;;0.60;99.90;;;;;;6190552;23;20021;-90
2022/04/01 02:06:54;;;;;;;1.40;1.40;;;1.40;99.90;;;;;;6166032;23;20020;-90
2022/04/01 02:10:06;;;;;;;;;;;;;;;;;;;;;
2022/04/01 02:12:48;;;;;;;0.55;0.55;;;-0.30;99.90;;;;;;6214399;23;20441;-91
2022/04/01 02:15:29;;;;;;;0.52;0.40;;;0.60;99.90;;;;;;6172360;23;20337;-91
2022/04/01 02:18:12;;;;;;;0.77;0.60;;;0.60;99.90;;;;;;6191231;23;20350;-92
2022/04/01 02:20:41;;;;;;;0.60;0.43;;;0.70;99.90;;;;;;6147876;23;20017;-91
2022/04/01 02:23:12;;;;;;;0.50;0.50;;;0.70;99.90;;;;;;6190496;23;20071;-91
2022/04/01 02:25:53;;;;;;;0.60;0.60;;;0.70;99.90;;;;;;6164249;23;20027;-91
2022/04/01 02:28:56;;;;;;;0.25;0.25;;;0.70;99.90;;;;;;6166875;23;20048;-90
2022/04/01 02:31:25;;;;;;;1.55;0.80;;;0.70;99.90;;;;;;6171364;23;20016;-90
2022/04/01 02:33:54;;;;;;;0.25;0.25;;;0.40;99.90;;;;;;6164756;23;20021;-90
2022/04/01 02:36:27;;;;;;;0.95;0.60;;;0.70;99.90;;;;;;6189501;23;20520;-91
2022/04/01 02:39:03;;;;;;;0.32;0.32;;;0.70;99.90;;;;;;6214553;23;20017;-90
2022/04/01 02:41:36;;;;;;;7.68;1.33;;;1.70;99.90;;;;;;6188410;23;20020;-90
2022/04/01 02:44:33;;;;;;;;;;;;;;;;;;;;;
2022/04/01 02:47:09;;;;;;;;;;;;;;;;;;;;;
2022/04/01 02:49:40;;;;;;;0.60;0.60;;;1.50;99.90;;;;;;6194088;23;20012;-91
2022/04/01 02:52:27;;;;;;;;;;;;;;;;;;;;;
2022/04/01 02:55:10;;;;;;;4.03;2.92;;;0.80;99.90;;;;;;6215545;23;20013;-91
2022/04/01 02:58:23;;;;;;;0.65;0.45;;;0.70;99.90;;;;;;6188850;23;20047;-90
2022/04/01 03:00:50;;;;;;;0.60;0.57;;;0.20;99.90;;;;;;6213728;23;20100;-90
2022/04/01 03:03:26;;;;;;;0.65;0.65;;;2.00;99.90;;;;;;6190876;23;20153;-90
2022/04/01 03:05:59;;;;;;;1.27;0.50;;;0.90;99.90;;;;;;6165888;23;20016;-90
2022/04/01 03:08:33;;;;;;;2.08;0.68;;;0.50;99.90;;;;;;6189208;23;20111;-90
2022/04/01 03:11:03;;;;;;;0.55;0.52;;;0.80;99.90;;;;;;6165452;23;20035;-90
2022/04/01 03:13:29;;;;;;;0.28;0.28;;;1.80;99.90;;;;;;6165401;23;20028;-90
2022/04/01 03:16:11;;;;;;;;;;;;;;;;;;;;;
2022/04/01 03:18:57;;;;;;;2.20;0.50;;;1.60;99.90;;;;;;6214185;23;20020;-90
2022/04/01 03:21:34;;;;;;;;;;;;;;;;;;;;;
2022/04/01 03:24:10;;;;;;;0.65;0.28;;;0.80;99.90;;;;;;6214060;23;20109;-90
2022/04/01 03:26:41;;;;;;;3.63;0.95;;;1.80;99.90;;;;;;6188435;23;20024;-90
2022/04/01 03:29:18;;;;;;;;;;;;;;;;;;;;;
2022/04/01 03:32:14;;;;;;;0.30;0.30;;;0.90;99.90;;;;;;6214145;23;20025;-89
2022/04/01 03:34:56;;;;;;;0.93;0.60;;;2.10;99.90;;;;;;6165290;23;20449;-89
2022/04/01 03:37:27;;;;;;;0.45;0.45;;;0.90;99.90;;;;;;6188620;23;20071;-90
2022/04/01 03:39:58;;;;;;;0.75;0.70;;;1.90;99.90;;;;;;6189196;23;20023;-89
2022/04/01 03:42:53;;;;;;;1.10;0.25;;;1.60;99.90;;;;;;6215399;23;20017;-90
2022/04/01 03:45:29;;;;;;;0.68;0.45;;;0.90;99.90;;;;;;6189053;23;20017;-89
2022/04/01 03:48:39;;;;;;;4.13;0.70;;;1.90;99.90;;;;;;6188481;23;20020;-90
2022/04/01 03:51:29;;;;;;;0.75;0.57;;;0.90;99.90;;;;;;6213536;23;20074;-90
2022/04/01 03:54:01;;;;;;;0.57;0.57;;;1.90;99.90;;;;;;6176315;23;20110;-90
2022/04/01 03:57:02;;;;;;;0.40;0.40;;;0.40;99.90;;;;;;6189967;23;20465;-90
2022/04/01 03:59:40;;;;;;;0.98;0.95;;;-0.30;99.90;;;;;;6183251;23;20092;-90
2022/04/01 04:02:15;;;;;;;0.25;0.20;;;2.10;99.90;;;;;;6189523;23;20017;-90
2022/04/01 04:04:44;;;;;;;1.45;0.75;;;0.80;99.90;;;;;;6188389;23;20023;-90
2022/04/01 04:07:20;;;;;;;;;;;;;;;;;;;;;
2022/04/01 04:10:08;;;;;;;0.65;0.30;;;1.30;99.90;;;;;;6214133;23;20480;-89
2022/04/01 04:12:44;;;;;;;;;;;0.80;99.90;;;;;;6190281;23;20120;-89
2022/04/01 04:15:26;;;;;;;;;;;;;;;;;;;;;
2022/04/01 04:18:01;;;;;;;0.88;0.40;;;0.20;99.90;;;;;;6170447;23;20019;-88
2022/04/01 04:20:49;;;;;;;0.43;0.43;;;2.20;99.90;;;;;;6190571;23;20013;-89
2022/04/01 04:24:07;;;;;;;0.82;0.77;;;0.90;99.90;;;;;;6190904;23;20091;-89
2022/04/01 04:26:45;;;;;;;2.92;0.68;;;2.30;99.90;;;;;;6191133;23;20040;-90
2022/04/01 04:29:20;;;;;;;1.42;1.30;;;0.20;99.90;;;;;;6191397;23;20079;-89
2022/04/01 04:32:09;;;;;;;0.95;0.40;;;0.90;99.90;;;;;;6189959;23;20016;-90
2022/04/01 04:34:52;;;;;;;0.30;0.30;;;0.90;99.90;;;;;;6190639;23;20035;-89
2022/04/01 04:37:29;;;;;;;1.95;0.50;;;2.20;99.90;;;;;;6165916;23;20450;-89
2022/04/01 04:40:05;;;;;;;0.40;0.40;;;2.00;99.90;;;;;;6190291;23;20020;-89
2022/04/01 04:42:51;;;;;;;0.57;0.35;;;1.00;99.90;;;;;;6166078;23;20012;-90
2022/04/01 04:45:32;;;;;;;0.50;0.50;;;0.90;99.90;;;;;;6190476;23;20017;-89
2022/04/01 04:48:29;;;;;;;;;;;;;;;;;;;;;
2022/04/01 04:51:02;;;;;;;0.32;0.32;;;1.70;99.90;;;;;;6215012;23;20012;-89
2022/04/01 04:53:31;;;;;;;1.05;0.63;;;1.90;99.90;;;;;;6166546;23;20021;-89
2022/04/01 04:56:14;;;;;;;;;;;;;;;;;;;;;
2022/04/01 04:58:52;;;;;;;0.50;0.50;;;1.90;99.90;;;;;;6215375;23;20039;-89
2022/04/01 05:01:52;;;;;;;1.58;0.77;;;1.80;99.90;;;;;;6190572;23;20012;-89
2022/04/01 05:04:49;;;;;;;0.47;0.32;;;1.10;99.90;;;;;;6214974;23;20020;-89
2022/04/01 05:07:40;;;;;;;3.65;0.68;;;1.10;99.90;;;;;;6193458;23;20016;-89
2022/04/01 05:10:17;;;;;;;0.22;0.22;;;2.50;99.90;;;;;;6189570;23;20027;-89
2022/04/01 05:13:08;;;;;;;0.63;0.50;;;1.10;99.90;;;;;;6190192;23;20028;-92
2022/04/01 05:16:04;;;;;;;0.40;0.40;;;1.00;99.90;;;;;;6190168;23;20087;-89
2022/04/01 05:18:44;;;;;;;0.40;0.40;;;0.70;99.90;;;;;;6173087;23;20073;-89
2022/04/01 05:21:26;;;;;;;0.55;0.55;;;1.10;99.90;;;;;;6215951;23;20020;-89
2022/04/01 05:24:06;;;;;;;0.63;0.63;;;1.20;99.90;;;;;;6189997;23;20016;-89
2022/04/01 05:27:32;;;;;;;1.50;0.60;;;0.80;99.90;;;;;;6189951;23;20017;-89
2022/04/01 05:30:21;;;;;;;1.00;0.52;;;1.10;99.90;;;;;;6189438;23;20020;-89
2022/04/01 05:33:08;;;;;;;;;;;;;;;;;;;;;
2022/04/01 05:35:51;;;;;;;0.63;0.32;;;2.20;99.90;;;;;;6215603;23;20013;-88
2022/04/01 05:38:27;;;;;;;0.35;0.35;;;2.30;99.90;;;;;;6190087;23;20020;-89
2022/04/01 05:41:11;;;;;;;0.97;0.67;;;0.10;99.90;;;;;;6189564;23;20012;-88
2022/04/01 05:43:47;;;;;;;0.40;0.40;;;1.20;99.90;;;;;;6190107;23;20024;-89
2022/04/01 05:46:29;;;;;;;;;;;;;;;;;;;;;
2022/04/01 05:49:02;;;;;;;0.30;0.30;;;1.10;99.90;;;;;;6214634;23;20024;-88
2022/04/01 05:51:37;;;;;;;0.60;0.57;;;1.30;99.90;;;;;;6214821;23;20027;-88
2022/04/01 05:54:23;;;;;;;3.85;1.60;;;1.20;99.90;;;;;;6190145;23;20070;-89
2022/04/01 05:56:52;;;;;;;0.98;0.98;;;1.60;99.90;;;;;;6189568;23;20020;-90
2022/04/01 05:59:33;;;;;;;0.32;0.32;;;1.50;99.90;;;;;;6190793;23;20017;-89
2022/04/01 06:02:21;;;;;;;3.17;0.52;;;2.50;99.90;;;;;;6167271;23;20013;-89
2022/04/01 06:05:14;;;;;;;0.40;0.40;;;1.30;99.90;;;;;;6190359;23;20154;-89
2022/04/01 06:07:52;;;;;;;0.40;0.40;;;1.30;99.90;;;;;;6190310;23;20095;-89
2022/04/01 06:10:45;;;;;;;;;;;;;;;;;;;;;
2022/04/01 06:13:53;;;;;;;0.13;0.13;;;2.50;99.90;;;;;;6214011;23;20023;-88
2022/04/01 06:17:24;;;;;;;1.58;0.60;;;0.60;99.90;;;;;;6189579;23;20095;-88
2022/04/01 06:20:06;;;;;;;;;;;;;;;;;;;;;
2022/04/01 06:22:52;;;;;;;0.47;0.47;;;2.70;99.90;;;;;;6214540;23;20023;-89
2022/04/01 06:25:54;;;;;;;0.60;0.60;;;2.80;99.90;;;;;;6192437;22;20016;-89
2022/04/01 06:28:39;;;;;;;0.38;0.38;;;2.10;99.90;;;;;;6219391;23;20023;-89
2022/04/01 06:31:33;;;;;;;0.35;0.35;;;1.60;99.90;;;;;;6194068;23;20054;-89
2022/04/01 06:34:23;;;;;;;2.28;1.38;;;0.80;99.90;;;;;;6193752;23;20095;-90
2022/04/01 06:40:14;;;;;;;1.08;0.30;;;1.70;99.90;;;;;;6220040;23;20022;-90
2022/04/01 06:43:04;;;;;;;;;;;;;;;;;;;;;
2022/04/01 06:45:53;;;;;;;0.45;0.30;;;0.90;99.90;;;;;;6218051;23;20119;-90
2022/04/01 06:48:40;;;;;;;4.90;0.68;;;1.70;99.90;;;;;;6219212;23;20012;-90
2022/04/01 06:51:18;;;;;;;1.83;1.07;;;1.80;99.90;;;;;;6196076;23;20116;-90
2022/04/01 06:54:00;;;;;;;0.93;0.75;;;1.90;99.90;;;;;;6175573;23;20023;-91
2022/04/01 06:56:34;;;;;;;0.70;0.70;;;2.70;99.90;;;;;;6196491;23;20543;-91
2022/04/01 06:59:07;;;;;;;1.38;0.63;;;1.90;99.90;;;;;;6192099;23;20485;-91
2022/04/01 07:10:44;;;;;;;1.40;1.08;;;1.40;99.90;;;;;;6219608;23;20024;-91
2022/04/01 07:13:29;;;;;;;0.77;0.60;;;2.10;99.90;;;;;;6219843;23;20159;-91
2022/04/01 07:16:18;;;;;;;;;;;;;;;;;;;;;
2022/04/01 07:18:57;;;;;;;2.40;0.60;;;2.50;99.90;;;;;;6219202;23;20019;-91
2022/04/01 07:21:26;;;;;;;1.33;0.93;;;2.10;99.90;;;;;;6170137;23;20012;-91
2022/04/01 07:24:08;;;;;;;0.30;0.30;;;2.10;99.90;;;;;;6169500;23;20047;-91
2022/04/01 07:27:05;;;;;;;0.52;0.52;;;3.00;99.90;;;;;;6195701;23;20027;-91
2022/04/01 07:29:56;;;;;;;0.82;0.75;;;2.20;99.90;;;;;;6193586;23;20023;-91
2022/04/01 07:32:54;;;;;;;0.70;0.70;;;2.20;99.90;;;;;;6196288;23;20016;-92
2022/04/01 07:35:47;;;;;;;0.80;0.47;;;2.20;99.90;;;;;;6174448;23;20016;-92
2022/04/01 07:38:46;;;;;;;;;;;;;;;;;;;;;
2022/04/01 07:41:36;;;;;;;;;;;;;;;;;;;;;
2022/04/01 07:44:30;;;;;;;1.83;0.83;;;2.20;99.90;;;;;;6245157;23;20024;-92
2022/04/01 07:47:09;;;;;;;0.68;0.68;;;2.10;99.90;;;;;;6194329;23;20247;-92
2022/04/01 07:50:03;;;;;;;1.92;0.73;;;2.00;99.90;;;;;;6169343;23;20415;-92
2022/04/01 07:52:42;;;;;;;;;;;;;;;;;;;;;
2022/04/01 07:55:41;;;;;;;0.43;0.43;;;3.10;99.90;;;;;;6220692;23;20087;-92
2022/04/01 07:58:30;;;;;;;;;;;;;;;;;;;;;
2022/04/01 08:01:03;;;;;;;0.75;0.60;;;3.10;99.90;;;;;;6199981;23;20016;-92
2022/04/01 08:04:08;;;;;;;;;;;;;;;;;;;;;
2022/04/01 08:07:00;;;;;;;1.17;0.75;;;2.10;99.90;;;;;;6220656;23;20012;-92
2022/04/01 08:09:33;;;;;;;0.50;0.50;;;2.00;99.90;;;;;;6196405;23;20318;-93
2022/04/01 08:12:43;;;;;;;1.33;0.43;;;3.10;99.90;;;;;;6197698;23;20070;-92
2022/04/01 08:15:26;;;;;;;1.52;1.25;;;3.20;99.90;;;;;;6134817;23;20027;-92
2022/04/01 08:18:35;;;;;;;1.58;1.48;;;2.00;99.90;;;;;;6223102;23;20016;-92
2022/04/01 08:21:46;;;;;;;;;;;;;;;;;;;;;
2022/04/01 08:24:43;;;;;;;2.25;1.15;;;1.60;99.90;;;;;;6198305;23;20016;-91
2022/04/01 08:27:59;;;;;;;1.55;1.30;;;1.10;99.90;;;;;;6195233;23;20096;-91
2022/04/01 08:30:46;;;;;;;2.90;1.13;;;1.20;99.90;;;;;;6196188;23;20095;-92
2022/04/01 08:33:53;;;;;;;;;;;;;;;;;;;;;
2022/04/01 08:36:35;;;;;;;4.07;1.50;;;1.10;99.90;;;;;;6202783;23;20012;-91
2022/04/01 08:39:35;;;;;;;3.42;2.08;;;1.90;99.90;;;;;;6221486;23;20012;-91
2022/04/01 08:42:04;;;;;;;3.58;1.75;;;1.90;99.90;;;;;;6196179;23;20445;-90
2022/04/01 08:44:43;;;;;;;;;;;;;;;;;;;;;
2022/04/01 08:53:25;;;;;;;4.25;2.85;;;2.20;99.90;;;;;;6189539;23;20058;-91
2022/04/01 08:56:10;;;;;;;11.25;2.65;;;2.30;99.90;;;;;;6172426;23;20020;-90
2022/04/01 08:59:00;;;;;;;2.72;2.17;;;3.60;99.90;;;;;;6171526;23;20065;-90
2022/04/01 09:01:49;;;;;;;;;;;;;;;;;;;;;
2022/04/01 09:04:28;;;;;;;2.20;2.00;;;2.50;99.90;;;;;;6220163;23;20016;-90
2022/04/01 09:07:42;;;;;;;;;;;;;;;;;;;;;
2022/04/01 09:10:18;;;;;;;4.82;1.90;;;2.20;99.90;;;;;;6218178;23;20016;-90
2022/04/01 09:12:56;;;;;;;1.83;1.67;;;2.60;99.90;;;;;;6170576;23;20094;-91
2022/04/01 09:15:39;;;;;;;2.58;1.98;;;1.80;99.90;;;;;;6194588;23;20082;-91
2022/04/01 09:18:33;;;;;;;4.18;2.05;;;3.20;99.90;;;;;;6195463;23;20016;-91
2022/04/01 09:21:39;;;;;;;6.78;2.53;;;2.40;99.90;;;;;;6196859;23;20066;-90
2022/04/01 09:24:27;;;;;;;2.20;1.63;;;2.80;99.90;;;;;;6194866;23;20078;-91
2022/04/01 09:27:27;;;;;;;2.50;2.25;;;2.80;99.90;;;;;;6171531;23;20099;-91
2022/04/01 09:30:08;;;;;;;7.68;2.47;;;2.50;99.90;;;;;;6195228;23;20020;-91
2022/04/01 09:32:53;;;;;;;;;;;;;;;;;;;;;
2022/04/01 09:38:38;;;;;;;;;;;;;;;;;;;;;
2022/04/01 09:42:00;;;;;;;;;;;;;;;;;;;;;
2022/04/01 09:44:43;;;;;;;3.85;1.90;;;3.10;99.90;;;;;;6186737;23;20016;-91
2022/04/01 09:47:19;;;;;;;2.28;2.05;;;3.10;99.90;;;;;;6195500;23;20017;-91
2022/04/01 09:50:11;;;;;;;1.80;1.63;;;3.10;99.90;;;;;;6194771;23;20020;-92
2022/04/01 09:52:43;;;;;;;2.42;2.10;;;3.20;99.90;;;;;;6194425;23;20016;-89
2022/04/01 09:55:09;;;;;;;4.03;2.88;;;3.30;99.90;;;;;;6195092;23;20318;-89
2022/04/01 09:57:49;;;;;;;3.65;1.85;;;4.40;99.90;;;;;;6193672;23;20202;-89
2022/04/01 10:00:46;;;;;;;2.13;1.70;;;3.40;99.90;;;;;;6194689;23;20027;-88
2022/04/01 10:03:28;;;;;;;1.80;1.70;;;3.60;99.90;;;;;;6194783;23;20039;-89
2022/04/01 10:06:10;;;;;;;1.80;1.70;;;3.60;99.90;;;;;;6171790;23;20027;-89
2022/04/01 10:08:53;;;;;;;2.70;2.13;;;3.60;99.90;;;;;;6194234;23;20023;-89
2022/04/01 10:11:26;;;;;;;3.92;2.05;;;3.50;99.90;;;;;;6171893;23;20016;-89
2022/04/01 10:13:56;;;;;;;3.78;1.33;;;3.70;99.90;;;;;;6195368;23;20020;-88
2022/04/01 10:16:56;;;;;;;;;;;;;;;;;;;;;
2022/04/01 10:20:09;;;;;;;3.57;2.27;;;4.60;99.90;;;;;;6218964;23;20031;-89
2022/04/01 10:22:39;;;;;;;2.53;1.67;;;4.10;99.90;;;;;;6193667;23;20019;-89
2022/04/01 10:25:14;;;;;;;3.22;1.40;;;4.10;99.90;;;;;;6195044;23;20016;-89
2022/04/01 10:28:44;;;;;;;6.55;1.45;;;4.10;99.90;;;;;;6190469;23;20048;-89
2022/04/01 10:31:18;;;;;;;1.70;0.98;;;4.20;99.90;;;;;;6169929;23;20087;-89
2022/04/01 10:34:48;;;;;;;3.60;1.80;;;3.70;99.90;;;;;;6193938;23;20052;-89
2022/04/01 10:38:04;;;;;;;;;;;;;;;;;;;;;
2022/04/01 10:40:41;;;;;;;1.77;1.20;;;3.70;99.90;;;;;;6163146;23;20460;-93
2022/04/01 10:43:29;;;;;;;1.57;1.37;;;4.60;99.90;;;;;;6190424;23;20021;-93
2022/04/01 10:46:01;;;;;;;;;;;3.80;99.90;;;;;;6188579;23;20016;-92
2022/04/01 10:51:39;;;;;;;1.90;1.38;;;3.80;99.90;;;;;;6214323;23;20021;-90
2022/04/01 10:54:44;;;;;;;1.33;1.23;;;3.70;99.90;;;;;;6167126;23;20323;-91
2022/04/01 10:57:33;;;;;;;5.22;1.60;;;3.70;99.90;;;;;;6188334;23;20027;-85
2022/04/01 11:00:15;;;;;;;1.80;1.55;;;3.60;99.90;;;;;;6189136;23;20585;-85
2022/04/01 11:02:53;;;;;;;2.10;1.40;;;3.60;99.90;;;;;;6212227;23;20021;-86
2022/04/01 11:05:32;;;;;;;2.67;1.05;;;3.70;99.90;;;;;;6188218;23;20016;-85
2022/04/01 11:08:15;;;;;;;1.40;1.15;;;2.80;99.90;;;;;;6213452;23;20099;-86
2022/04/01 11:11:15;;;;;;;2.08;1.45;;;3.80;99.90;;;;;;6212774;23;20024;-85
2022/04/01 11:14:02;;;;;;;3.70;1.50;;;3.90;99.90;;;;;;6186715;23;20345;-85
2022/04/01 11:16:52;;;;;;;2.85;1.50;;;3.80;99.90;;;;;;6187182;23;20118;-85
2022/04/01 11:19:28;;;;;;;6.90;1.38;;;3.70;99.90;;;;;;6213310;23;20019;-85
2022/04/01 11:21:54;;;;;;;1.20;1.10;;;3.70;99.90;;;;;;6188016;23;20024;-85
2022/04/01 11:24:38;;;;;;;3.50;0.75;;;3.70;99.90;;;;;;6212985;23;20012;-86
2022/04/01 11:27:17;;;;;;;0.50;0.50;;;3.80;99.90;;;;;;6212871;23;20021;-85
2022/04/01 11:30:08;;;;;;;1.33;1.10;;;4.20;99.90;;;;;;6187317;23;20016;-86
2022/04/01 11:32:49;;;;;;;5.38;0.90;;;3.80;99.90;;;;;;6212216;23;20031;-86
2022/04/01 11:35:16;;;;;;;1.60;0.95;;;3.70;99.90;;;;;;6187715;23;20021;-86
2022/04/01 11:37:49;;;;;;;0.73;0.73;;;5.00;99.90;;;;;;6212002;23;20387;-85
2022/04/01 11:40:26;;;;;;;1.90;1.38;;;4.80;99.90;;;;;;6187374;23;20020;-85
2022/04/01 11:43:05;;;;;;;0.60;0.60;;;3.80;99.90;;;;;;6212220;23;20024;-86
2022/04/01 11:45:42;;;;;;;2.30;1.13;;;3.80;99.90;;;;;;6187110;23;20028;-85
2022/04/01 11:48:37;;;;;;;;;;;3.80;99.90;;;;;;6213578;23;20070;-88
2022/04/01 11:51:15;;;;;;;;;;;;;;;;;;;;;
2022/04/01 11:54:08;;;;;;;1.00;1.00;;;3.80;99.90;;;;;;6212661;23;20525;-91
2022/04/01 11:56:57;;;;;;;0.82;0.80;;;3.70;99.90;;;;;;6175310;23;20020;-89
2022/04/01 11:59:24;;;;;;;;;;;3.90;99.90;;;;;;6164715;23;20095;-89
2022/04/01 12:02:20;;;;;;;0.47;0.47;;;3.90;99.90;;;;;;6188306;23;19990;-88
2022/04/01 12:05:25;;;;;;;0.60;0.60;;;4.10;99.90;;;;;;6161562;23;20029;-88
2022/04/01 12:08:51;;;;;;;;;;;;;;;;;;;;;
2022/04/01 12:11:23;;;;;;;1.17;1.05;;;4.20;99.90;;;;;;6213973;23;20063;-89
2022/04/01 12:13:57;;;;;;;1.63;1.05;;;4.20;99.90;;;;;;6213310;23;20571;-89
2022/04/01 12:16:31;;;;;;;1.15;0.98;;;4.20;99.90;;;;;;6163500;23;20017;-88
2022/04/01 12:19:20;;;;;;;2.10;1.25;;;4.10;99.90;;;;;;6188705;23;20086;-88
2022/04/01 12:21:52;;;;;;;;;;;4.10;99.90;;;;;;6188536;23;20016;-89
2022/04/01 12:24:44;;;;;;;1.15;0.80;;;4.60;99.90;;;;;;6189243;23;19916;-87
2022/04/01 12:27:33;;;;;;;2.72;1.55;;;3.90;99.90;;;;;;6162978;23;20079;-88
2022/04/01 12:30:07;;;;;;;1.70;1.10;;;4.50;99.90;;;;;;6164186;23;20345;-89
2022/04/01 12:33:19;;;;;;;6.40;1.83;;;4.00;99.90;;;;;;6163804;23;20013;-88
2022/04/01 12:36:02;;;;;;;1.25;1.13;;;5.00;99.90;;;;;;6163489;23;20027;-88
2022/04/01 12:38:45;;;;;;;2.80;1.27;;;4.30;99.90;;;;;;6165408;23;20484;-89
2022/04/01 12:41:19;;;;;;;3.80;1.10;;;4.50;99.90;;;;;;6163140;23;20024;-89
2022/04/01 12:44:02;;;;;;;1.23;1.13;;;5.10;99.90;;;;;;6164757;23;20461;-88
2022/04/01 12:46:34;;;;;;;2.08;1.17;;;4.60;99.90;;;;;;6166154;23;20020;-88
2022/04/01 12:49:42;;;;;;;;;;;;;;;;;;;;;
2022/04/01 12:52:19;;;;;;;1.33;1.00;;;4.80;99.90;;;;;;6191668;23;20087;-88
2022/04/01 12:55:34;;;;;;;1.85;1.35;;;4.90;99.90;;;;;;6145001;23;20406;-89
2022/04/01 12:58:04;;;;;;;0.88;0.70;;;5.00;99.90;;;;;;6168981;23;20091;-88
2022/04/01 13:01:05;;;;;;;1.67;1.30;;;5.00;99.90;;;;;;6166599;23;20012;-88
2022/04/01 13:03:44;;;;;;;0.90;0.73;;;5.00;99.90;;;;;;6147774;23;20389;-89
2022/04/01 13:06:26;;;;;;;;;;;;;;;;;;;;;
2022/04/01 13:12:36;;;;;;;1.35;0.93;;;5.40;99.90;;;;;;6190336;23;20397;-89
2022/04/01 13:15:16;;;;;;;1.10;0.75;;;4.80;99.90;;;;;;6165108;23;20047;-89
2022/04/01 13:18:02;;;;;;;1.65;1.13;;;4.60;99.90;;;;;;6137192;23;20017;-89
2022/04/01 13:20:36;;;;;;;1.38;1.10;;;4.70;99.90;;;;;;6165451;23;20025;-89
2022/04/01 13:23:05;;;;;;;0.82;0.82;;;4.70;99.90;;;;;;6164277;23;20345;-89
2022/04/01 13:25:37;;;;;;;4.38;1.10;;;4.90;99.90;;;;;;6164587;23;20056;-89
2022/04/01 13:28:18;;;;;;;0.98;0.82;;;4.80;99.90;;;;;;6162244;23;20067;-89
2022/04/01 13:30:49;;;;;;;2.80;0.88;;;4.80;99.90;;;;;;6194390;23;20019;-88
2022/04/01 13:33:30;;;;;;;;;;;;;;;;;;;;;
2022/04/01 13:35:59;;;;;;;0.60;0.60;;;4.90;99.90;;;;;;6197057;23;20017;-89
2022/04/01 13:38:42;;;;;;;1.60;1.25;;;4.90;99.90;;;;;;6219770;23;20039;-89
2022/04/01 13:41:08;;;;;;;1.20;0.80;;;4.80;99.90;;;;;;6194520;23;20016;-89
2022/04/01 13:43:36;;;;;;;3.03;1.50;;;4.30;99.90;;;;;;6194315;23;20326;-89
2022/04/01 13:46:14;;;;;;;1.48;0.90;;;5.00;99.90;;;;;;6194014;23;20016;-89
2022/04/01 13:48:40;;;;;;;1.23;1.13;;;4.90;99.90;;;;;;6172157;23;20354;-90
2022/04/01 13:51:21;;;;;;;;;;;;;;;;;;;;;
2022/04/01 13:54:34;;;;;;;0.80;0.60;;;4.40;99.90;;;;;;6219492;23;20043;-89
2022/04/01 13:57:05;;;;;;;1.60;0.95;;;4.90;99.90;;;;;;6196819;23;20031;-89
2022/04/01 13:59:42;;;;;;;0.80;0.80;;;4.80;99.90;;;;;;6219027;23;20114;-90
2022/04/01 14:02:18;;;;;;;1.05;0.95;;;6.10;99.90;;;;;;6195119;23;20020;-89
2022/04/01 14:05:08;;;;;;;1.95;1.10;;;4.80;99.90;;;;;;6195067;23;20016;-89
2022/04/01 14:07:41;;;;;;;1.55;0.55;;;4.80;99.90;;;;;;6169797;23;20024;-89
2022/04/01 14:10:27;;;;;;;1.17;1.08;;;4.80;99.90;;;;;;6193903;23;20054;-88
2022/04/01 14:13:07;;;;;;;1.08;0.85;;;4.80;99.90;;;;;;6146432;23;20051;-88
2022/04/01 14:15:37;;;;;;;1.02;0.90;;;6.00;99.90;;;;;;6171457;23;20027;-88
2022/04/01 14:18:06;;;;;;;0.85;0.73;;;4.00;99.90;;;;;;6193900;23;20016;-88
2022/04/01 14:20:37;;;;;;;1.88;1.17;;;4.70;99.90;;;;;;6194159;23;20111;-88
2022/04/01 14:23:10;;;;;;;2.30;1.45;;;6.00;99.90;;;;;;6193538;23;20074;-90
2022/04/01 14:25:46;;;;;;;;;;;;;;;;;;;;;
2022/04/01 14:28:26;;;;;;;2.40;1.33;;;4.70;99.90;;;;;;6171630;23;20377;-89
2022/04/01 14:31:07;;;;;;;2.05;0.98;;;4.70;99.90;;;;;;6144075;23;20365;-88
2022/04/01 14:33:34;;;;;;;0.90;0.80;;;4.60;99.90;;;;;;6164152;23;20017;-88
2022/04/01 14:36:12;;;;;;;1.85;1.10;;;5.90;99.90;;;;;;6163528;23;20020;-89
2022/04/01 14:38:43;;;;;;;1.48;0.77;;;4.70;99.90;;;;;;6140545;23;20371;-89
2022/04/01 14:41:22;;;;;;;0.65;0.65;;;4.70;99.90;;;;;;6163700;23;20322;-89
2022/04/01 14:43:57;;;;;;;3.40;0.90;;;4.60;99.90;;;;;;6141886;23;20021;-90
2022/04/01 14:46:23;;;;;;;1.00;0.90;;;4.60;99.90;;;;;;6164398;23;20016;-90
2022/04/01 14:48:59;;;;;;;3.63;0.80;;;4.70;99.90;;;;;;6164444;23;20071;-89
2022/04/01 14:51:37;;;;;;;0.85;0.82;;;4.60;99.90;;;;;;6139776;23;20034;-89
2022/04/01 14:54:26;;;;;;;2.38;1.20;;;4.60;99.90;;;;;;6120007;23;20013;-89
2022/04/01 14:56:53;;;;;;;1.08;0.90;;;4.60;99.90;;;;;;6117350;23;20524;-92
2022/04/01 14:59:20;;;;;;;;;;;5.00;99.90;;;;;;6164539;23;20476;-90
2022/04/01 15:01:59;;;;;;;;;;;;;;;;;;;;;
2022/04/01 15:04:30;;;;;;;1.13;0.90;;;4.60;99.90;;;;;;6188783;23;20036;-89
2022/04/01 15:07:17;;;;;;;1.50;0.75;;;4.60;99.90;;;;;;6163597;23;20020;-89
2022/04/01 15:09:55;;;;;;;;;;;;;;;;;;;;;
2022/04/01 15:12:23;;;;;;;4.45;1.20;;;4.60;99.90;;;;;;6189281;23;20028;-90
2022/04/01 15:14:55;;;;;;;1.85;1.15;;;4.60;99.90;;;;;;6139896;23;20456;-89
2022/04/01 15:17:33;;;;;;;0.90;0.90;;;4.60;99.90;;;;;;6139071;23;20099;-89
2022/04/01 15:20:07;;;;;;;0.93;0.82;;;4.70;99.90;;;;;;6163292;23;20091;-89
2022/04/01 15:22:35;;;;;;;1.50;1.00;;;4.60;99.90;;;;;;6164098;23;20016;-89
2022/04/01 15:25:12;;;;;;;2.03;0.95;;;3.60;99.90;;;;;;6163475;23;20027;-89
2022/04/01 15:27:43;;;;;;;1.52;1.05;;;4.60;99.90;;;;;;6132193;23;20524;-88
2022/04/01 15:30:10;;;;;;;0.90;0.68;;;4.50;99.90;;;;;;6169402;23;20043;-89
2022/04/01 15:32:51;;;;;;;2.30;1.20;;;4.50;99.90;;;;;;6169517;23;20018;-89
2022/04/01 15:35:23;;;;;;;1.98;0.68;;;4.60;99.90;;;;;;6193529;23;20444;-89
2022/04/01 15:38:06;;;;;;;;;;;;;;;;;;;;;
2022/04/01 15:40:42;;;;;;;1.33;0.80;;;4.80;99.90;;;;;;6219014;23;20012;-88
2022/04/01 15:43:12;;;;;;;2.30;0.98;;;4.60;99.90;;;;;;6193047;23;20020;-88
2022/04/01 15:45:48;;;;;;;1.05;0.47;;;3.60;99.90;;;;;;6194075;23;20027;-89
2022/04/01 15:48:37;;;;;;;0.95;0.85;;;4.50;99.90;;;;;;6194200;23;20016;-88
2022/04/01 15:51:18;;;;;;;1.48;1.00;;;4.50;99.90;;;;;;6193747;23;20016;-89
2022/04/01 15:54:02;;;;;;;0.90;0.90;;;4.50;99.90;;;;;;6148443;23;20506;-87
2022/04/01 15:56:43;;;;;;;0.68;0.63;;;4.50;99.90;;;;;;6194641;23;20020;-88
2022/04/01 15:59:19;;;;;;;1.50;1.08;;;4.50;99.90;;;;;;6193179;23;20056;-88
2022/04/01 16:01:49;;;;;;;2.58;1.00;;;4.50;99.90;;;;;;6171026;23;20016;-89
2022/04/01 16:04:25;;;;;;;1.40;0.95;;;4.60;99.90;;;;;;6193474;23;20017;-90
2022/04/01 16:07:28;;;;;;;;;;;;;;;;;;;;;